Cozumel, Mexico

10:29 PM CDT on August 22, 2014 (GMT -0500)
ASRCZM | Change Station
CLOSE
Current Station
Personal Weather Station
Location: Cozumel, QUINTANA ROO
Elevation: 15 ft
Nearby Weather Stations

Elev 15 ft 20.51 °N, 86.93 °W | Updated 3 minutes ago

Scattered Clouds
Scattered Clouds
83.4 °F
Feels Like 94 °F
N
5.0
Wind Variable Wind from NE
Gusts 7.0 mph

Today
High -- | Low -- °F
--% Chance of Precip.
Yesterday
High -- | Low -- °F
Precip. -- in
6:29 AM 7:11 PM
Waning Crescent, 5% visible
Pressure 29.97 in
Visibility 7.0 miles
Clouds Few 1500 ft
Scattered Clouds 30000 ft
Heat Index 94 °F
Dew Point 78 °F
Humidity 84%
Rainfall 0.00 in
Snow Depth Not available.
UV 0.0 out of 12
Pollen Not available.
Air Quality Not available.
Flu Activity Not available.
METAR MMUN 230247Z 04002KT 7SM FEW015 SCT300 27/26 A2999 RMK SLP148 52010 960 8/508 DSNT CB LTG E

More Conditions Fewer Conditions

Pressure 29.97 in
Visibility 7.0 miles
Clouds Few 1500 ft
Scattered Clouds 30000 ft
Heat Index 94 °F
Dew Point 78 °F
Humidity 84%
Rainfall 0.00 in
Snow Depth Not available.
UV 0.0 out of 12
Pollen Not available.
Air Quality Not available.
Flu Activity Not available.
METAR MMUN 230247Z 04002KT 7SM FEW015 SCT300 27/26 A2999 RMK SLP148 52010 960 8/508 DSNT CB LTG E

More Conditions Fewer Conditions

10-Day Weather Forecast

Almanac

Astronomy

Aug. 22, 2014 Rise Set
Actual Time 6:29 AM CDT 7:11 PM CDT
Civil Twilight 6:06 AM CDT 7:34 PM CDT
Nautical Twilight 5:39 AM CDT 8:01 PM CDT
Astronomical Twilight 5:12 AM CDT 8:28 PM CDT
Moon 4:00 AM CDT (8/22) 5:12 PM CDT (8/22)
Length of Visible Light 13h 27m
Length of Day
12h 42m
Tomorrow will be 1m 4s shorter.
Waning Crescent, 5% of the Moon is Illuminated
Today
Waning Crescent
Aug 25
New
Sep 2
First Quarter
Sep 8
Full
Sep 15
Last Quarter

Today's Extremes

Country Highs Country Lows

Community

WunderPhotos

Upload Photos

1,746,345 photos uploaded!

WunderBlogs® & News

Nearby

Snow Depth

Not available.

Earthquake Activity

City Distance Mag. Time & Date
No recent earthquake activity has been reported nearby.
Minimum magnitude displayed is 2.5.

Coastal Water Temperatures

Place Temperature
No Stations Reporting

Nearby Weather Stations